sensor_id;sensor_type;location;lat;lon;timestamp;temperature;humidity
11538;DHT22;50159;49.426;11.182;2024-02-23T00:00:27;8.50;99.90
11538;DHT22;50159;49.426;11.182;2024-02-23T00:02:54;8.50;99.90
11538;DHT22;50159;49.426;11.182;2024-02-23T00:05:22;8.50;99.90
11538;DHT22;50159;49.426;11.182;2024-02-23T00:07:49;8.50;99.90
11538;DHT22;50159;49.426;11.182;2024-02-23T00:10:16;8.50;99.90
11538;DHT22;50159;49.426;11.182;2024-02-23T00:12:43;8.60;99.90
11538;DHT22;50159;49.426;11.182;2024-02-23T00:15:10;8.60;99.90
11538;DHT22;50159;49.426;11.182;2024-02-23T00:17:36;8.60;99.90
11538;DHT22;50159;49.426;11.182;2024-02-23T00:20:05;8.60;99.90
11538;DHT22;50159;49.426;11.182;2024-02-23T00:22:32;8.60;99.90
11538;DHT22;50159;49.426;11.182;2024-02-23T00:25:00;8.60;99.90
11538;DHT22;50159;49.426;11.182;2024-02-23T00:27:27;8.60;99.90
11538;DHT22;50159;49.426;11.182;2024-02-23T00:29:54;8.60;99.90
11538;DHT22;50159;49.426;11.182;2024-02-23T00:32:20;8.50;99.90
11538;DHT22;50159;49.426;11.182;2024-02-23T00:34:47;8.60;99.90
11538;DHT22;50159;49.426;11.182;2024-02-23T00:37:14;8.60;99.90
11538;DHT22;50159;49.426;11.182;2024-02-23T00:39:41;8.60;99.90
11538;DHT22;50159;49.426;11.182;2024-02-23T00:42:08;8.50;99.90
11538;DHT22;50159;49.426;11.182;2024-02-23T00:44:34;8.50;99.90
11538;DHT22;50159;49.426;11.182;2024-02-23T00:47:01;8.40;99.90
11538;DHT22;50159;49.426;11.182;2024-02-23T00:49:29;8.40;99.90
11538;DHT22;50159;49.426;11.182;2024-02-23T00:51:56;8.40;99.90
11538;DHT22;50159;49.426;11.182;2024-02-23T00:54:23;8.40;99.90
11538;DHT22;50159;49.426;11.182;2024-02-23T00:56:49;8.40;99.90
11538;DHT22;50159;49.426;11.182;2024-02-23T00:59:19;8.30;99.90
11538;DHT22;50159;49.426;11.182;2024-02-23T01:01:47;8.30;99.90
11538;DHT22;50159;49.426;11.182;2024-02-23T01:04:14;8.30;99.90
11538;DHT22;50159;49.426;11.182;2024-02-23T01:06:40;8.20;99.90
11538;DHT22;50159;49.426;11.182;2024-02-23T01:09:07;8.20;99.90
11538;DHT22;50159;49.426;11.182;2024-02-23T01:11:34;8.10;99.90
11538;DHT22;50159;49.426;11.182;2024-02-23T01:14:01;8.00;99.90
11538;DHT22;50159;49.426;11.182;2024-02-23T01:16:27;8.00;99.90
11538;DHT22;50159;49.426;11.182;2024-02-23T01:18:54;8.00;99.90
11538;DHT22;50159;49.426;11.182;2024-02-23T01:21:20;7.90;99.90
11538;DHT22;50159;49.426;11.182;2024-02-23T01:23:47;7.80;99.90
11538;DHT22;50159;49.426;11.182;2024-02-23T01:26:14;7.70;99.90
11538;DHT22;50159;49.426;11.182;2024-02-23T01:28:41;7.70;99.90
11538;DHT22;50159;49.426;11.182;2024-02-23T01:31:08;7.60;99.90
11538;DHT22;50159;49.426;11.182;2024-02-23T01:33:37;7.60;99.90
11538;DHT22;50159;49.426;11.182;2024-02-23T01:36:04;7.60;99.90
11538;DHT22;50159;49.426;11.182;2024-02-23T01:38:31;7.50;99.90
11538;DHT22;50159;49.426;11.182;2024-02-23T01:40:59;7.40;99.90
11538;DHT22;50159;49.426;11.182;2024-02-23T01:43:26;7.40;99.90
11538;DHT22;50159;49.426;11.182;2024-02-23T01:45:53;7.30;99.90
11538;DHT22;50159;49.426;11.182;2024-02-23T01:48:20;7.30;99.90
11538;DHT22;50159;49.426;11.182;2024-02-23T01:50:47;7.20;99.90
11538;DHT22;50159;49.426;11.182;2024-02-23T01:53:14;7.20;99.90
11538;DHT22;50159;49.426;11.182;2024-02-23T01:55:41;7.20;99.90
11538;DHT22;50159;49.426;11.182;2024-02-23T01:58:08;7.10;99.90
11538;DHT22;50159;49.426;11.182;2024-02-23T02:00:35;7.10;99.90
11538;DHT22;50159;49.426;11.182;2024-02-23T02:03:02;7.00;99.90
11538;DHT22;50159;49.426;11.182;2024-02-23T02:05:29;7.00;99.90
11538;DHT22;50159;49.426;11.182;2024-02-23T02:07:55;7.00;99.90
11538;DHT22;50159;49.426;11.182;2024-02-23T02:10:26;6.90;99.90
11538;DHT22;50159;49.426;11.182;2024-02-23T02:12:53;6.90;99.90
11538;DHT22;50159;49.426;11.182;2024-02-23T02:15:20;6.80;99.90
11538;DHT22;50159;49.426;11.182;2024-02-23T02:17:48;6.80;99.90
11538;DHT22;50159;49.426;11.182;2024-02-23T02:20:15;6.80;99.90
11538;DHT22;50159;49.426;11.182;2024-02-23T02:22:44;6.70;99.90
11538;DHT22;50159;49.426;11.182;2024-02-23T02:25:13;6.80;99.90
11538;DHT22;50159;49.426;11.182;2024-02-23T02:27:40;6.70;99.90
11538;DHT22;50159;49.426;11.182;2024-02-23T02:30:07;6.70;99.90
11538;DHT22;50159;49.426;11.182;2024-02-23T02:32:35;6.70;99.90
11538;DHT22;50159;49.426;11.182;2024-02-23T02:35:03;6.70;99.90
11538;DHT22;50159;49.426;11.182;2024-02-23T02:37:30;6.70;99.90
11538;DHT22;50159;49.426;11.182;2024-02-23T02:39:56;6.70;99.90
11538;DHT22;50159;49.426;11.182;2024-02-23T02:42:23;6.60;99.90
11538;DHT22;50159;49.426;11.182;2024-02-23T02:44:50;6.60;99.90
11538;DHT22;50159;49.426;11.182;2024-02-23T02:47:16;6.60;99.90
11538;DHT22;50159;49.426;11.182;2024-02-23T02:49:43;6.60;99.90
11538;DHT22;50159;49.426;11.182;2024-02-23T02:52:09;6.60;99.90
11538;DHT22;50159;49.426;11.182;2024-02-23T02:54:36;6.50;99.90
11538;DHT22;50159;49.426;11.182;2024-02-23T02:57:03;6.50;99.90
11538;DHT22;50159;49.426;11.182;2024-02-23T02:59:33;6.50;99.90
11538;DHT22;50159;49.426;11.182;2024-02-23T03:02:00;6.50;99.90
11538;DHT22;50159;49.426;11.182;2024-02-23T03:04:27;6.50;99.90
11538;DHT22;50159;49.426;11.182;2024-02-23T03:06:53;6.50;99.90
11538;DHT22;50159;49.426;11.182;2024-02-23T03:09:20;6.50;99.90
11538;DHT22;50159;49.426;11.182;2024-02-23T03:11:47;6.40;99.90
11538;DHT22;50159;49.426;11.182;2024-02-23T03:14:14;6.40;99.90
11538;DHT22;50159;49.426;11.182;2024-02-23T03:16:40;6.40;99.90
11538;DHT22;50159;49.426;11.182;2024-02-23T03:19:08;6.40;99.90
11538;DHT22;50159;49.426;11.182;2024-02-23T03:21:35;6.40;99.90
11538;DHT22;50159;49.426;11.182;2024-02-23T03:24:05;6.30;99.90
11538;DHT22;50159;49.426;11.182;2024-02-23T03:26:32;6.30;99.90
11538;DHT22;50159;49.426;11.182;2024-02-23T03:28:59;6.30;99.90
11538;DHT22;50159;49.426;11.182;2024-02-23T03:31:25;6.40;99.90
11538;DHT22;50159;49.426;11.182;2024-02-23T03:33:52;6.40;99.90
11538;DHT22;50159;49.426;11.182;2024-02-23T03:36:19;6.30;99.90
11538;DHT22;50159;49.426;11.182;2024-02-23T03:38:46;6.30;99.90
11538;DHT22;50159;49.426;11.182;2024-02-23T03:41:13;6.30;99.90
11538;DHT22;50159;49.426;11.182;2024-02-23T03:43:40;6.30;99.90
11538;DHT22;50159;49.426;11.182;2024-02-23T03:46:06;6.20;99.90
11538;DHT22;50159;49.426;11.182;2024-02-23T03:48:33;6.20;99.90
11538;DHT22;50159;49.426;11.182;2024-02-23T03:51:00;6.20;99.90
11538;DHT22;50159;49.426;11.182;2024-02-23T03:53:27;6.20;99.90
11538;DHT22;50159;49.426;11.182;2024-02-23T03:55:54;6.20;99.90
11538;DHT22;50159;49.426;11.182;2024-02-23T03:58:20;6.10;99.90
11538;DHT22;50159;49.426;11.182;2024-02-23T04:00:47;6.20;99.90
11538;DHT22;50159;49.426;11.182;2024-02-23T04:03:14;6.10;99.90
11538;DHT22;50159;49.426;11.182;2024-02-23T04:05:40;6.10;99.90
11538;DHT22;50159;49.426;11.182;2024-02-23T04:08:07;6.10;99.90
11538;DHT22;50159;49.426;11.182;2024-02-23T04:10:34;6.10;99.90
11538;DHT22;50159;49.426;11.182;2024-02-23T04:13:01;6.00;99.90
11538;DHT22;50159;49.426;11.182;2024-02-23T04:15:28;6.00;99.90
11538;DHT22;50159;49.426;11.182;2024-02-23T04:17:54;6.00;99.90
11538;DHT22;50159;49.426;11.182;2024-02-23T04:20:21;5.90;99.90
11538;DHT22;50159;49.426;11.182;2024-02-23T04:22:48;6.00;99.90
11538;DHT22;50159;49.426;11.182;2024-02-23T04:25:15;6.00;99.90
11538;DHT22;50159;49.426;11.182;2024-02-23T04:27:41;5.90;99.90
11538;DHT22;50159;49.426;11.182;2024-02-23T04:30:10;5.90;99.90
11538;DHT22;50159;49.426;11.182;2024-02-23T04:32:38;5.90;99.90
11538;DHT22;50159;49.426;11.182;2024-02-23T04:35:05;5.90;99.90
11538;DHT22;50159;49.426;11.182;2024-02-23T04:37:31;5.90;99.90
11538;DHT22;50159;49.426;11.182;2024-02-23T04:40:02;5.90;99.90
11538;DHT22;50159;49.426;11.182;2024-02-23T04:42:30;5.90;99.90
11538;DHT22;50159;49.426;11.182;2024-02-23T04:44:57;5.90;99.90
11538;DHT22;50159;49.426;11.182;2024-02-23T04:47:24;5.90;99.90
11538;DHT22;50159;49.426;11.182;2024-02-23T04:49:51;5.80;99.90
11538;DHT22;50159;49.426;11.182;2024-02-23T04:52:17;5.80;99.90
11538;DHT22;50159;49.426;11.182;2024-02-23T04:54:44;5.80;99.90
11538;DHT22;50159;49.426;11.182;2024-02-23T04:57:11;5.80;99.90
11538;DHT22;50159;49.426;11.182;2024-02-23T04:59:37;5.80;99.90
11538;DHT22;50159;49.426;11.182;2024-02-23T05:02:04;5.70;99.90
11538;DHT22;50159;49.426;11.182;2024-02-23T05:04:30;5.70;99.90
11538;DHT22;50159;49.426;11.182;2024-02-23T05:06:57;5.70;99.90
11538;DHT22;50159;49.426;11.182;2024-02-23T05:09:24;5.70;99.90
11538;DHT22;50159;49.426;11.182;2024-02-23T05:11:50;5.70;99.90
11538;DHT22;50159;49.426;11.182;2024-02-23T05:14:17;5.70;99.90
11538;DHT22;50159;49.426;11.182;2024-02-23T05:16:44;5.70;99.90
11538;DHT22;50159;49.426;11.182;2024-02-23T05:19:10;5.70;99.90
11538;DHT22;50159;49.426;11.182;2024-02-23T05:21:37;5.60;99.90
11538;DHT22;50159;49.426;11.182;2024-02-23T05:24:04;5.60;99.90
11538;DHT22;50159;49.426;11.182;2024-02-23T05:26:32;5.60;99.90
11538;DHT22;50159;49.426;11.182;2024-02-23T05:28:59;5.60;99.90
11538;DHT22;50159;49.426;11.182;2024-02-23T05:31:43;5.60;99.90
11538;DHT22;50159;49.426;11.182;2024-02-23T05:34:10;5.60;99.90
11538;DHT22;50159;49.426;11.182;2024-02-23T05:36:36;5.60;99.90
11538;DHT22;50159;49.426;11.182;2024-02-23T05:39:03;5.60;99.90
11538;DHT22;50159;49.426;11.182;2024-02-23T05:41:29;5.50;99.90
11538;DHT22;50159;49.426;11.182;2024-02-23T05:43:56;5.50;99.90
11538;DHT22;50159;49.426;11.182;2024-02-23T05:46:23;5.50;99.90
11538;DHT22;50159;49.426;11.182;2024-02-23T05:48:50;5.50;99.90
11538;DHT22;50159;49.426;11.182;2024-02-23T05:51:16;5.40;99.90
11538;DHT22;50159;49.426;11.182;2024-02-23T05:53:50;5.40;99.90
11538;DHT22;50159;49.426;11.182;2024-02-23T05:56:17;5.40;99.90
11538;DHT22;50159;49.426;11.182;2024-02-23T05:58:44;5.40;99.90
11538;DHT22;50159;49.426;11.182;2024-02-23T06:01:11;5.30;99.90
11538;DHT22;50159;49.426;11.182;2024-02-23T06:03:38;5.30;99.90
11538;DHT22;50159;49.426;11.182;2024-02-23T06:06:07;5.40;99.90
11538;DHT22;50159;49.426;11.182;2024-02-23T06:08:35;5.30;99.90
11538;DHT22;50159;49.426;11.182;2024-02-23T06:11:03;5.30;99.90
11538;DHT22;50159;49.426;11.182;2024-02-23T06:13:30;5.30;99.90
11538;DHT22;50159;49.426;11.182;2024-02-23T06:15:57;5.20;99.90
11538;DHT22;50159;49.426;11.182;2024-02-23T06:18:23;5.20;99.90
11538;DHT22;50159;49.426;11.182;2024-02-23T06:20:50;5.20;99.90
11538;DHT22;50159;49.426;11.182;2024-02-23T06:23:17;5.20;99.90
11538;DHT22;50159;49.426;11.182;2024-02-23T06:25:44;5.20;99.90
11538;DHT22;50159;49.426;11.182;2024-02-23T06:28:12;5.10;99.90
11538;DHT22;50159;49.426;11.182;2024-02-23T06:30:39;5.20;99.90
11538;DHT22;50159;49.426;11.182;2024-02-23T06:33:06;5.20;99.90
11538;DHT22;50159;49.426;11.182;2024-02-23T06:35:32;5.20;99.90
11538;DHT22;50159;49.426;11.182;2024-02-23T06:37:59;5.10;99.90
11538;DHT22;50159;49.426;11.182;2024-02-23T06:40:26;5.10;99.90
11538;DHT22;50159;49.426;11.182;2024-02-23T06:43:07;5.10;99.90
11538;DHT22;50159;49.426;11.182;2024-02-23T06:45:33;5.10;99.90
11538;DHT22;50159;49.426;11.182;2024-02-23T06:48:00;5.20;99.90
11538;DHT22;50159;49.426;11.182;2024-02-23T06:50:27;5.20;99.90
11538;DHT22;50159;49.426;11.182;2024-02-23T06:52:54;5.20;99.90
11538;DHT22;50159;49.426;11.182;2024-02-23T06:55:21;5.20;99.90
11538;DHT22;50159;49.426;11.182;2024-02-23T06:57:48;4.40;99.90
11538;DHT22;50159;49.426;11.182;2024-02-23T07:00:15;5.10;99.90
11538;DHT22;50159;49.426;11.182;2024-02-23T07:02:42;5.10;99.90
11538;DHT22;50159;49.426;11.182;2024-02-23T07:05:08;5.10;99.90
11538;DHT22;50159;49.426;11.182;2024-02-23T07:07:35;5.10;99.90
11538;DHT22;50159;49.426;11.182;2024-02-23T07:10:02;5.10;99.90
11538;DHT22;50159;49.426;11.182;2024-02-23T07:12:28;5.00;99.90
11538;DHT22;50159;49.426;11.182;2024-02-23T07:14:55;5.10;99.90
11538;DHT22;50159;49.426;11.182;2024-02-23T07:17:22;5.10;99.90
11538;DHT22;50159;49.426;11.182;2024-02-23T07:19:49;5.10;99.90
11538;DHT22;50159;49.426;11.182;2024-02-23T07:22:17;5.10;99.90
11538;DHT22;50159;49.426;11.182;2024-02-23T07:24:47;5.20;99.90
11538;DHT22;50159;49.426;11.182;2024-02-23T07:27:13;5.20;99.90
11538;DHT22;50159;49.426;11.182;2024-02-23T07:29:40;5.20;99.90
11538;DHT22;50159;49.426;11.182;2024-02-23T07:32:07;5.20;99.90
11538;DHT22;50159;49.426;11.182;2024-02-23T07:34:36;5.30;99.90
11538;DHT22;50159;49.426;11.182;2024-02-23T07:37:03;5.30;99.90
11538;DHT22;50159;49.426;11.182;2024-02-23T07:39:30;5.30;99.90
11538;DHT22;50159;49.426;11.182;2024-02-23T07:41:57;5.40;99.90
11538;DHT22;50159;49.426;11.182;2024-02-23T07:44:25;5.30;99.90
11538;DHT22;50159;49.426;11.182;2024-02-23T07:46:52;5.40;99.90
11538;DHT22;50159;49.426;11.182;2024-02-23T07:49:21;5.40;99.90
11538;DHT22;50159;49.426;11.182;2024-02-23T07:51:48;5.40;99.90
11538;DHT22;50159;49.426;11.182;2024-02-23T07:54:15;5.40;99.90
11538;DHT22;50159;49.426;11.182;2024-02-23T07:56:42;5.40;99.90
11538;DHT22;50159;49.426;11.182;2024-02-23T07:59:08;5.50;99.90
11538;DHT22;50159;49.426;11.182;2024-02-23T08:01:35;5.50;99.90
11538;DHT22;50159;49.426;11.182;2024-02-23T08:04:02;5.50;99.90
11538;DHT22;50159;49.426;11.182;2024-02-23T08:06:29;5.50;99.90
11538;DHT22;50159;49.426;11.182;2024-02-23T08:08:56;5.60;99.90
11538;DHT22;50159;49.426;11.182;2024-02-23T08:11:23;5.60;99.90
11538;DHT22;50159;49.426;11.182;2024-02-23T08:13:49;5.60;99.90
11538;DHT22;50159;49.426;11.182;2024-02-23T08:16:16;5.60;99.90
11538;DHT22;50159;49.426;11.182;2024-02-23T08:18:44;5.60;99.90
11538;DHT22;50159;49.426;11.182;2024-02-23T08:21:10;5.60;99.90
11538;DHT22;50159;49.426;11.182;2024-02-23T08:23:37;5.60;99.90
11538;DHT22;50159;49.426;11.182;2024-02-23T08:26:04;5.70;99.90
11538;DHT22;50159;49.426;11.182;2024-02-23T08:28:30;5.70;99.90
11538;DHT22;50159;49.426;11.182;2024-02-23T08:30:57;5.80;99.90
11538;DHT22;50159;49.426;11.182;2024-02-23T08:33:23;5.80;99.90
11538;DHT22;50159;49.426;11.182;2024-02-23T08:35:50;5.80;99.90
11538;DHT22;50159;49.426;11.182;2024-02-23T08:38:17;5.80;99.90
11538;DHT22;50159;49.426;11.182;2024-02-23T08:40:45;5.80;99.90
11538;DHT22;50159;49.426;11.182;2024-02-23T08:43:11;5.90;99.90
11538;DHT22;50159;49.426;11.182;2024-02-23T08:45:38;5.90;99.90
11538;DHT22;50159;49.426;11.182;2024-02-23T08:48:05;6.00;99.90
11538;DHT22;50159;49.426;11.182;2024-02-23T08:50:32;6.10;99.90
11538;DHT22;50159;49.426;11.182;2024-02-23T08:52:58;6.10;99.90
11538;DHT22;50159;49.426;11.182;2024-02-23T08:55:25;6.10;99.90
11538;DHT22;50159;49.426;11.182;2024-02-23T08:57:52;6.10;99.90
11538;DHT22;50159;49.426;11.182;2024-02-23T09:00:19;6.10;99.90
11538;DHT22;50159;49.426;11.182;2024-02-23T09:02:45;6.10;99.90
11538;DHT22;50159;49.426;11.182;2024-02-23T09:05:14;6.10;99.90
11538;DHT22;50159;49.426;11.182;2024-02-23T09:07:41;6.10;99.90
11538;DHT22;50159;49.426;11.182;2024-02-23T09:10:09;6.10;99.90
11538;DHT22;50159;49.426;11.182;2024-02-23T09:12:35;6.10;99.90
11538;DHT22;50159;49.426;11.182;2024-02-23T09:15:02;6.20;99.90
11538;DHT22;50159;49.426;11.182;2024-02-23T09:17:29;6.20;99.90
11538;DHT22;50159;49.426;11.182;2024-02-23T09:19:56;6.20;99.90
11538;DHT22;50159;49.426;11.182;2024-02-23T09:22:23;6.20;99.90
11538;DHT22;50159;49.426;11.182;2024-02-23T09:24:50;6.20;99.90
11538;DHT22;50159;49.426;11.182;2024-02-23T09:27:17;6.20;99.90
11538;DHT22;50159;49.426;11.182;2024-02-23T09:29:44;6.30;99.90
11538;DHT22;50159;49.426;11.182;2024-02-23T09:32:11;6.30;99.90
11538;DHT22;50159;49.426;11.182;2024-02-23T09:34:38;6.30;99.90
11538;DHT22;50159;49.426;11.182;2024-02-23T09:37:04;6.30;99.90
11538;DHT22;50159;49.426;11.182;2024-02-23T09:39:31;6.30;99.90
11538;DHT22;50159;49.426;11.182;2024-02-23T09:41:58;6.30;99.90
11538;DHT22;50159;49.426;11.182;2024-02-23T09:44:31;6.30;99.90
11538;DHT22;50159;49.426;11.182;2024-02-23T09:47:00;6.40;99.90
11538;DHT22;50159;49.426;11.182;2024-02-23T09:49:28;6.40;99.90
11538;DHT22;50159;49.426;11.182;2024-02-23T09:51:54;6.40;99.40
11538;DHT22;50159;49.426;11.182;2024-02-23T09:54:21;6.40;97.00
11538;DHT22;50159;49.426;11.182;2024-02-23T09:56:48;6.40;96.90
11538;DHT22;50159;49.426;11.182;2024-02-23T09:59:15;6.40;96.20
11538;DHT22;50159;49.426;11.182;2024-02-23T10:01:42;6.40;96.30
11538;DHT22;50159;49.426;11.182;2024-02-23T10:04:09;6.40;96.30
11538;DHT22;50159;49.426;11.182;2024-02-23T10:06:35;6.40;96.30
11538;DHT22;50159;49.426;11.182;2024-02-23T10:09:02;6.40;96.60
11538;DHT22;50159;49.426;11.182;2024-02-23T10:11:30;6.40;95.90
11538;DHT22;50159;49.426;11.182;2024-02-23T10:13:57;6.40;96.20
11538;DHT22;50159;49.426;11.182;2024-02-23T10:16:24;6.40;96.50
11538;DHT22;50159;49.426;11.182;2024-02-23T10:18:51;6.50;96.40
11538;DHT22;50159;49.426;11.182;2024-02-23T10:21:18;6.50;96.10
11538;DHT22;50159;49.426;11.182;2024-02-23T10:23:45;6.50;96.40
11538;DHT22;50159;49.426;11.182;2024-02-23T10:26:12;6.50;96.10
11538;DHT22;50159;49.426;11.182;2024-02-23T10:28:39;6.60;96.20
11538;DHT22;50159;49.426;11.182;2024-02-23T10:31:06;6.60;95.90
11538;DHT22;50159;49.426;11.182;2024-02-23T10:33:37;6.60;95.20
11538;DHT22;50159;49.426;11.182;2024-02-23T10:36:05;6.60;95.30
11538;DHT22;50159;49.426;11.182;2024-02-23T10:38:33;6.60;95.30
11538;DHT22;50159;49.426;11.182;2024-02-23T10:41:02;6.60;95.40
11538;DHT22;50159;49.426;11.182;2024-02-23T10:43:41;6.60;95.10
11538;DHT22;50159;49.426;11.182;2024-02-23T10:46:11;6.60;95.30
11538;DHT22;50159;49.426;11.182;2024-02-23T10:48:43;6.60;95.10
11538;DHT22;50159;49.426;11.182;2024-02-23T10:51:10;6.70;95.10
11538;DHT22;50159;49.426;11.182;2024-02-23T10:53:37;6.70;94.70
11538;DHT22;50159;49.426;11.182;2024-02-23T10:56:05;6.70;94.70
11538;DHT22;50159;49.426;11.182;2024-02-23T10:58:33;6.70;94.50
11538;DHT22;50159;49.426;11.182;2024-02-23T11:01:00;6.70;93.90
11538;DHT22;50159;49.426;11.182;2024-02-23T11:03:28;6.70;94.00
11538;DHT22;50159;49.426;11.182;2024-02-23T11:05:55;6.70;94.00
11538;DHT22;50159;49.426;11.182;2024-02-23T11:08:22;6.70;93.80
11538;DHT22;50159;49.426;11.182;2024-02-23T11:10:49;6.60;93.70
11538;DHT22;50159;49.426;11.182;2024-02-23T11:13:29;6.60;94.00
11538;DHT22;50159;49.426;11.182;2024-02-23T11:16:01;6.70;94.10
11538;DHT22;50159;49.426;11.182;2024-02-23T11:18:28;6.70;94.50
11538;DHT22;50159;49.426;11.182;2024-02-23T11:20:55;6.80;93.60
11538;DHT22;50159;49.426;11.182;2024-02-23T11:23:22;6.90;93.60
11538;DHT22;50159;49.426;11.182;2024-02-23T11:25:59;6.90;93.30
11538;DHT22;50159;49.426;11.182;2024-02-23T11:28:27;6.90;93.50
11538;DHT22;50159;49.426;11.182;2024-02-23T11:30:53;6.90;93.70
11538;DHT22;50159;49.426;11.182;2024-02-23T11:33:26;7.00;93.50
11538;DHT22;50159;49.426;11.182;2024-02-23T11:35:53;7.00;93.80
11538;DHT22;50159;49.426;11.182;2024-02-23T11:38:21;7.00;94.00
11538;DHT22;50159;49.426;11.182;2024-02-23T11:40:48;7.00;94.00
11538;DHT22;50159;49.426;11.182;2024-02-23T11:43:14;7.10;94.20
11538;DHT22;50159;49.426;11.182;2024-02-23T11:45:42;7.00;93.50
11538;DHT22;50159;49.426;11.182;2024-02-23T11:48:09;7.00;93.50
11538;DHT22;50159;49.426;11.182;2024-02-23T11:50:36;7.00;93.70
11538;DHT22;50159;49.426;11.182;2024-02-23T11:53:03;7.00;94.20
11538;DHT22;50159;49.426;11.182;2024-02-23T11:55:30;7.00;94.20
11538;DHT22;50159;49.426;11.182;2024-02-23T11:57:57;7.00;94.60
11538;DHT22;50159;49.426;11.182;2024-02-23T12:00:34;7.10;95.00
11538;DHT22;50159;49.426;11.182;2024-02-23T12:03:01;7.10;94.60
11538;DHT22;50159;49.426;11.182;2024-02-23T12:05:28;7.20;94.80
11538;DHT22;50159;49.426;11.182;2024-02-23T12:07:55;7.20;95.00
11538;DHT22;50159;49.426;11.182;2024-02-23T12:10:23;7.10;95.00
11538;DHT22;50159;49.426;11.182;2024-02-23T12:12:49;7.10;95.30
11538;DHT22;50159;49.426;11.182;2024-02-23T12:15:16;7.10;95.40
11538;DHT22;50159;49.426;11.182;2024-02-23T12:17:47;7.10;95.60
11538;DHT22;50159;49.426;11.182;2024-02-23T12:20:14;7.10;95.90
11538;DHT22;50159;49.426;11.182;2024-02-23T12:22:41;7.10;95.90
11538;DHT22;50159;49.426;11.182;2024-02-23T12:25:08;7.00;96.30
11538;DHT22;50159;49.426;11.182;2024-02-23T12:27:34;7.10;96.90
11538;DHT22;50159;49.426;11.182;2024-02-23T12:30:01;7.10;96.90
11538;DHT22;50159;49.426;11.182;2024-02-23T12:32:28;7.10;97.00
11538;DHT22;50159;49.426;11.182;2024-02-23T12:34:55;7.20;97.10
11538;DHT22;50159;49.426;11.182;2024-02-23T12:37:22;7.20;97.80
11538;DHT22;50159;49.426;11.182;2024-02-23T12:39:49;7.20;98.30
11538;DHT22;50159;49.426;11.182;2024-02-23T12:42:17;7.20;98.40
11538;DHT22;50159;49.426;11.182;2024-02-23T12:44:44;7.30;98.60
11538;DHT22;50159;49.426;11.182;2024-02-23T12:47:11;7.30;98.60
11538;DHT22;50159;49.426;11.182;2024-02-23T12:49:37;7.20;99.10
11538;DHT22;50159;49.426;11.182;2024-02-23T12:52:08;7.30;99.50
11538;DHT22;50159;49.426;11.182;2024-02-23T12:54:35;7.20;99.10
11538;DHT22;50159;49.426;11.182;2024-02-23T12:57:02;7.20;98.80
11538;DHT22;50159;49.426;11.182;2024-02-23T12:59:28;7.20;99.30
11538;DHT22;50159;49.426;11.182;2024-02-23T13:01:55;7.20;98.40
11538;DHT22;50159;49.426;11.182;2024-02-23T13:04:22;7.10;98.10
11538;DHT22;50159;49.426;11.182;2024-02-23T13:06:48;7.20;98.20
11538;DHT22;50159;49.426;11.182;2024-02-23T13:09:15;7.20;97.10
11538;DHT22;50159;49.426;11.182;2024-02-23T13:11:42;7.20;97.70
11538;DHT22;50159;49.426;11.182;2024-02-23T13:14:09;7.20;97.40
11538;DHT22;50159;49.426;11.182;2024-02-23T13:16:36;7.20;97.40
11538;DHT22;50159;49.426;11.182;2024-02-23T13:19:03;7.20;97.40
11538;DHT22;50159;49.426;11.182;2024-02-23T13:21:29;7.20;97.60
11538;DHT22;50159;49.426;11.182;2024-02-23T13:23:58;7.20;97.10
11538;DHT22;50159;49.426;11.182;2024-02-23T13:26:25;7.30;97.50
11538;DHT22;50159;49.426;11.182;2024-02-23T13:28:52;7.40;97.50
11538;DHT22;50159;49.426;11.182;2024-02-23T13:31:19;7.40;97.30
11538;DHT22;50159;49.426;11.182;2024-02-23T13:33:46;7.40;97.10
11538;DHT22;50159;49.426;11.182;2024-02-23T13:36:13;7.50;96.50
11538;DHT22;50159;49.426;11.182;2024-02-23T13:38:40;7.50;96.20
11538;DHT22;50159;49.426;11.182;2024-02-23T13:41:08;7.50;94.30
11538;DHT22;50159;49.426;11.182;2024-02-23T13:43:35;7.40;93.70
11538;DHT22;50159;49.426;11.182;2024-02-23T13:46:02;7.40;93.40
11538;DHT22;50159;49.426;11.182;2024-02-23T13:48:30;7.40;93.50
11538;DHT22;50159;49.426;11.182;2024-02-23T13:50:57;7.40;94.10
11538;DHT22;50159;49.426;11.182;2024-02-23T13:53:24;7.50;92.60
11538;DHT22;50159;49.426;11.182;2024-02-23T13:55:51;7.50;92.50
11538;DHT22;50159;49.426;11.182;2024-02-23T13:58:18;7.40;92.00
11538;DHT22;50159;49.426;11.182;2024-02-23T14:00:45;7.40;91.20
11538;DHT22;50159;49.426;11.182;2024-02-23T14:03:21;7.40;91.10
11538;DHT22;50159;49.426;11.182;2024-02-23T14:05:49;7.40;91.10
11538;DHT22;50159;49.426;11.182;2024-02-23T14:08:16;7.40;90.60
11538;DHT22;50159;49.426;11.182;2024-02-23T14:10:43;7.30;91.30
11538;DHT22;50159;49.426;11.182;2024-02-23T14:13:10;7.30;91.30
11538;DHT22;50159;49.426;11.182;2024-02-23T14:15:37;7.30;91.80
11538;DHT22;50159;49.426;11.182;2024-02-23T14:18:04;7.40;92.00
11538;DHT22;50159;49.426;11.182;2024-02-23T14:20:31;7.40;91.80
11538;DHT22;50159;49.426;11.182;2024-02-23T14:22:57;7.40;91.80
11538;DHT22;50159;49.426;11.182;2024-02-23T14:25:24;7.40;92.20
11538;DHT22;50159;49.426;11.182;2024-02-23T14:27:50;7.40;92.40
11538;DHT22;50159;49.426;11.182;2024-02-23T14:30:17;7.40;93.20
11538;DHT22;50159;49.426;11.182;2024-02-23T14:32:44;7.50;93.00
11538;DHT22;50159;49.426;11.182;2024-02-23T14:35:11;7.50;92.90
11538;DHT22;50159;49.426;11.182;2024-02-23T14:37:38;7.50;93.00
11538;DHT22;50159;49.426;11.182;2024-02-23T14:40:04;7.60;93.60
11538;DHT22;50159;49.426;11.182;2024-02-23T14:42:31;7.70;93.40
11538;DHT22;50159;49.426;11.182;2024-02-23T14:44:58;7.70;92.90
11538;DHT22;50159;49.426;11.182;2024-02-23T14:47:25;7.60;92.90
11538;DHT22;50159;49.426;11.182;2024-02-23T14:50:01;7.60;93.10
11538;DHT22;50159;49.426;11.182;2024-02-23T14:52:28;7.60;93.60
11538;DHT22;50159;49.426;11.182;2024-02-23T14:54:55;7.60;93.30
11538;DHT22;50159;49.426;11.182;2024-02-23T14:57:21;7.50;93.00
11538;DHT22;50159;49.426;11.182;2024-02-23T14:59:48;7.40;93.50
11538;DHT22;50159;49.426;11.182;2024-02-23T15:02:21;7.40;94.20
11538;DHT22;50159;49.426;11.182;2024-02-23T15:04:48;7.40;94.50
11538;DHT22;50159;49.426;11.182;2024-02-23T15:07:15;7.40;94.40
11538;DHT22;50159;49.426;11.182;2024-02-23T15:09:42;7.30;94.00
11538;DHT22;50159;49.426;11.182;2024-02-23T15:12:09;7.30;94.40
11538;DHT22;50159;49.426;11.182;2024-02-23T15:14:36;7.20;94.20
11538;DHT22;50159;49.426;11.182;2024-02-23T15:17:03;7.20;94.60
11538;DHT22;50159;49.426;11.182;2024-02-23T15:19:30;7.10;94.50
11538;DHT22;50159;49.426;11.182;2024-02-23T15:21:57;7.10;95.10
11538;DHT22;50159;49.426;11.182;2024-02-23T15:24:24;7.20;95.30
11538;DHT22;50159;49.426;11.182;2024-02-23T15:26:51;7.20;94.90
11538;DHT22;50159;49.426;11.182;2024-02-23T15:29:18;7.10;95.00